Time;durP1;ratioP1;P1;durP2;ratioP2;P2;SDS_P1;SDS_P2;PMS_P1;PMS_P2;Temp;Humidity;BMP_temperature;BMP_pressure;BME280_temperature;BME280_humidity;BME280_pressure;Samples;Min_cycle;Max_cycle;Signal;HPM_P1;HPM_P2
2022/05/13 00:00:05;;;;;;;6.00;5.43;;;14.80;99.90;;;;;;6157145;23;20025;-84
2022/05/13 00:02:35;;;;;;;6.28;4.80;;;14.80;99.90;;;;;;6158855;23;20469;-85
2022/05/13 00:05:07;;;;;;;13.32;5.05;;;14.80;99.90;;;;;;6153134;23;20029;-84
2022/05/13 00:07:34;;;;;;;4.88;4.15;;;14.80;99.90;;;;;;6158418;23;20017;-84
2022/05/13 00:10:05;;;;;;;6.68;3.90;;;14.80;99.90;;;;;;6148460;23;20033;-84
2022/05/13 00:12:38;;;;;;;7.15;6.53;;;14.80;99.90;;;;;;6154622;23;20036;-84
2022/05/13 00:15:11;;;;;;;8.32;4.90;;;14.80;99.90;;;;;;6158423;23;20018;-85
2022/05/13 00:17:56;;;;;;;6.28;4.75;;;14.80;99.90;;;;;;6149354;23;20048;-85
2022/05/13 00:20:25;;;;;;;4.53;4.13;;;14.90;99.90;;;;;;6155114;23;20025;-84
2022/05/13 00:22:57;;;;;;;6.63;4.38;;;14.90;99.90;;;;;;6158142;23;20674;-85
2022/05/13 00:25:32;;;;;;;7.80;5.03;;;14.90;99.90;;;;;;6138822;23;20033;-85
2022/05/13 00:28:01;;;;;;;6.60;5.10;;;14.90;99.90;;;;;;6133374;23;20021;-85
2022/05/13 00:30:31;;;;;;;6.57;4.60;;;14.90;99.90;;;;;;6122664;23;20277;-85
2022/05/13 00:33:01;;;;;;;7.28;5.55;;;14.90;99.90;;;;;;6153193;23;20507;-84
2022/05/13 00:35:29;;;;;;;5.93;5.15;;;14.90;99.90;;;;;;6158482;23;20018;-84
2022/05/13 00:37:57;;;;;;;4.60;3.85;;;14.80;99.90;;;;;;6132163;23;20444;-85
2022/05/13 00:40:27;;;;;;;5.82;5.32;;;14.80;99.90;;;;;;6154861;23;20032;-84
2022/05/13 00:43:05;;;;;;;11.48;5.75;;;14.80;99.90;;;;;;6121772;23;20028;-84
2022/05/13 00:45:36;;;;;;;6.72;4.53;;;14.80;99.90;;;;;;6124164;23;20029;-84
2022/05/13 00:48:11;;;;;;;4.45;4.05;;;14.70;99.90;;;;;;6121034;23;20058;-84
2022/05/13 00:50:40;;;;;;;8.57;4.57;;;14.70;99.90;;;;;;6132143;23;20690;-84
2022/05/13 00:53:13;;;;;;;5.90;5.03;;;14.80;99.90;;;;;;6147294;23;20030;-84
2022/05/13 00:55:44;;;;;;;14.68;6.07;;;14.80;99.90;;;;;;6158854;23;20017;-84
2022/05/13 00:58:17;;;;;;;;;;;14.80;99.90;;;;;;6147885;23;20025;-84
2022/05/13 01:00:47;;;;;;;5.25;4.75;;;14.80;99.90;;;;;;6153767;23;19920;-84
2022/05/13 01:03:15;;;;;;;6.32;4.95;;;14.80;99.90;;;;;;6097974;23;20045;-84
2022/05/13 01:05:53;;;;;;;5.82;5.07;;;14.70;99.90;;;;;;6149152;23;20034;-84
2022/05/13 01:08:21;;;;;;;5.35;4.22;;;14.80;99.90;;;;;;6154455;23;20361;-85
2022/05/13 01:10:56;;;;;;;6.82;5.05;;;14.70;99.90;;;;;;6158009;23;20028;-85
2022/05/13 01:13:28;;;;;;;5.65;4.20;;;14.70;99.90;;;;;;6151118;23;20021;-84
2022/05/13 01:15:57;;;;;;;7.95;5.18;;;14.70;99.90;;;;;;6157095;23;20548;-84
2022/05/13 01:18:37;;;;;;;8.88;5.53;;;14.70;99.90;;;;;;6157536;23;20018;-84
2022/05/13 01:21:08;;;;;;;;;;;14.70;99.90;;;;;;6151723;23;20025;-84
2022/05/13 01:23:43;;;;;;;7.45;4.10;;;14.70;99.90;;;;;;6158147;23;19920;-84
2022/05/13 01:26:26;;;;;;;6.32;5.75;;;14.70;99.90;;;;;;6146748;23;20029;-84
2022/05/13 01:28:56;;;;;;;5.00;4.43;;;14.70;99.90;;;;;;6152458;23;20345;-84
2022/05/13 01:31:33;;;;;;;7.65;5.10;;;14.70;99.90;;;;;;6157723;23;20013;-84
2022/05/13 01:34:07;;;;;;;4.90;4.53;;;14.80;99.90;;;;;;6147286;23;20785;-84
2022/05/13 01:36:41;;;;;;;5.00;4.53;;;14.80;99.90;;;;;;6153252;23;20049;-84
2022/05/13 01:39:17;;;;;;;5.97;5.47;;;14.70;99.90;;;;;;6148201;23;20460;-84
2022/05/13 01:41:45;;;;;;;6.63;6.03;;;14.70;99.90;;;;;;6149013;23;20032;-84
2022/05/13 01:44:16;;;;;;;7.68;6.10;;;14.60;99.90;;;;;;6155162;23;20029;-84
2022/05/13 01:46:43;;;;;;;;;;;14.50;99.90;;;;;;6122514;23;20357;-84
2022/05/13 01:49:11;;;;;;;9.85;5.78;;;14.40;99.90;;;;;;6096650;23;20412;-84
2022/05/13 01:51:39;;;;;;;14.90;6.60;;;14.40;99.90;;;;;;6153542;23;20017;-84
2022/05/13 01:54:07;;;;;;;5.07;4.57;;;14.40;99.90;;;;;;6105852;23;20030;-84
2022/05/13 01:56:35;;;;;;;8.73;5.07;;;14.40;99.90;;;;;;6127495;23;20047;-84
2022/05/13 01:59:03;;;;;;;6.18;5.35;;;14.50;99.90;;;;;;6157865;23;20020;-84
2022/05/13 02:01:31;;;;;;;8.50;4.50;;;14.50;99.90;;;;;;6150141;23;20036;-84
2022/05/13 02:04:03;;;;;;;6.28;4.85;;;14.50;99.90;;;;;;6156326;23;20025;-83
2022/05/13 02:06:31;;;;;;;7.63;5.53;;;14.60;99.90;;;;;;6157600;23;20024;-84
2022/05/13 02:08:59;;;;;;;5.35;4.95;;;14.60;99.90;;;;;;6151710;23;20032;-84
2022/05/13 02:11:30;;;;;;;10.35;6.22;;;14.60;99.90;;;;;;6147196;23;20021;-85
2022/05/13 02:13:59;;;;;;;6.18;4.82;;;14.60;99.90;;;;;;6148306;23;20034;-84
2022/05/13 02:16:26;;;;;;;6.10;5.18;;;14.60;99.90;;;;;;6154606;23;20512;-85
2022/05/13 02:18:58;;;;;;;6.40;5.13;;;14.70;99.90;;;;;;6158491;23;20025;-85
2022/05/13 02:21:28;;;;;;;5.53;5.05;;;14.70;99.90;;;;;;6124512;23;20021;-85
2022/05/13 02:23:56;;;;;;;5.82;5.15;;;14.60;99.90;;;;;;6156629;23;20018;-84
2022/05/13 02:26:24;;;;;;;8.00;5.47;;;14.60;99.90;;;;;;6158135;23;20714;-85
2022/05/13 02:28:57;;;;;;;5.82;4.57;;;14.60;99.90;;;;;;6153883;23;20033;-83
2022/05/13 02:31:25;;;;;;;6.40;5.50;;;14.60;99.90;;;;;;6158895;23;20018;-83
2022/05/13 02:33:53;;;;;;;11.23;5.47;;;14.60;99.90;;;;;;6149137;23;20326;-81
2022/05/13 02:36:21;;;;;;;5.70;5.20;;;14.60;99.90;;;;;;6154089;23;20032;-80
2022/05/13 02:38:49;;;;;;;11.93;6.07;;;14.70;99.90;;;;;;6159046;23;20028;-84
2022/05/13 02:41:17;;;;;;;7.20;6.32;;;14.70;99.90;;;;;;6152750;23;20029;-85
2022/05/13 02:43:54;;;;;;;8.90;5.70;;;14.70;99.90;;;;;;6159798;23;20013;-86
2022/05/13 02:46:29;;;;;;;6.38;5.38;;;14.70;99.90;;;;;;6131363;23;20677;-84
2022/05/13 02:48:59;;;;;;;5.90;5.10;;;14.70;99.90;;;;;;6153927;23;20021;-85
2022/05/13 02:51:27;;;;;;;6.82;4.90;;;14.70;99.90;;;;;;6156410;23;20021;-84
2022/05/13 02:53:56;;;;;;;7.72;5.57;;;14.70;99.90;;;;;;6150586;23;20041;-85
2022/05/13 02:56:26;;;;;;;4.97;4.53;;;14.70;99.90;;;;;;6156472;23;20032;-85
2022/05/13 02:58:57;;;;;;;9.52;4.85;;;14.60;99.90;;;;;;6159581;23;20021;-82
2022/05/13 03:01:25;;;;;;;5.65;5.07;;;14.60;99.90;;;;;;6151479;23;20785;-83
2022/05/13 03:03:53;;;;;;;5.65;5.15;;;14.70;99.90;;;;;;6157092;23;20425;-81
2022/05/13 03:06:21;;;;;;;13.10;6.85;;;14.70;99.90;;;;;;6122980;23;20025;-83
2022/05/13 03:08:49;;;;;;;11.18;6.00;;;14.80;99.90;;;;;;6148634;23;20331;-82
2022/05/13 03:11:18;;;;;;;8.82;4.78;;;14.80;99.90;;;;;;6159405;23;20728;-84
2022/05/13 03:13:49;;;;;;;5.53;4.97;;;14.70;99.90;;;;;;6150385;23;20036;-84
2022/05/13 03:16:24;;;;;;;6.32;5.82;;;14.70;99.90;;;;;;6148692;23;20752;-84
2022/05/13 03:18:55;;;;;;;8.13;5.22;;;14.70;99.90;;;;;;6159035;23;20021;-82
2022/05/13 03:21:25;;;;;;;7.43;5.45;;;14.70;99.90;;;;;;6151643;23;20025;-84
2022/05/13 03:24:11;;;;;;;15.32;6.28;;;14.70;99.90;;;;;;6158188;23;20018;-83
2022/05/13 03:27:37;;;;;;;6.60;5.35;;;14.70;99.90;;;;;;6121829;23;20022;-84
2022/05/13 03:31:02;;;;;;;5.00;4.53;;;14.60;99.90;;;;;;6118201;23;20032;-84
2022/05/13 03:34:21;;;;;;;5.60;5.10;;;14.60;99.90;;;;;;6148886;23;20025;-82
2022/05/13 03:37:41;;;;;;;6.63;5.93;;;14.60;99.90;;;;;;6132156;23;20025;-82
2022/05/13 03:41:00;;;;;;;5.40;4.88;;;14.60;99.90;;;;;;6152580;23;20637;-82
2022/05/13 03:43:37;;;;;;;4.88;4.45;;;14.60;99.90;;;;;;6157459;23;20017;-82
2022/05/13 03:46:05;;;;;;;4.70;4.30;;;14.70;99.90;;;;;;6148998;23;20030;-81
2022/05/13 03:48:33;;;;;;;6.15;5.25;;;14.60;99.90;;;;;;6128599;23;20033;-83
2022/05/13 03:51:01;;;;;;;5.55;4.97;;;14.60;99.90;;;;;;6121930;23;20032;-82
2022/05/13 03:53:29;;;;;;;8.20;4.97;;;14.60;99.90;;;;;;6151120;23;20036;-84
2022/05/13 03:55:56;;;;;;;5.88;5.43;;;14.60;99.90;;;;;;6131480;23;20021;-84
2022/05/13 03:58:24;;;;;;;5.97;5.45;;;14.60;99.90;;;;;;6158774;23;20022;-83
2022/05/13 04:00:55;;;;;;;5.78;5.20;;;14.50;99.90;;;;;;6127152;23;20036;-84
2022/05/13 04:11:22;;;;;;;3.97;3.40;;;14.50;99.90;;;;;;6107235;23;20225;-84
2022/05/13 04:17:23;;;;;;;8.23;4.85;;;14.30;99.90;;;;;;6121607;23;20041;-85
2022/05/13 04:19:50;;;;;;;4.47;4.07;;;14.30;99.90;;;;;;6117077;23;20017;-84
2022/05/13 04:22:25;;;;;;;3.90;3.05;;;14.30;99.90;;;;;;6144486;23;20017;-85
2022/05/13 04:24:56;;;;;;;6.28;4.80;;;14.20;99.90;;;;;;6122283;23;20658;-86
2022/05/13 04:27:34;;;;;;;5.85;5.30;;;14.20;99.90;;;;;;6150909;23;20017;-85
2022/05/13 04:30:06;;;;;;;4.78;4.35;;;14.20;99.90;;;;;;6131588;23;20473;-85
2022/05/13 04:32:35;;;;;;;6.90;3.73;;;14.20;99.90;;;;;;6095441;23;20505;-85
2022/05/13 04:35:03;;;;;;;6.63;5.75;;;14.20;99.90;;;;;;6145603;23;20028;-86
2022/05/13 04:37:31;;;;;;;6.63;6.13;;;14.30;99.90;;;;;;6130551;23;20500;-86
2022/05/13 04:39:59;;;;;;;5.95;4.38;;;14.30;99.90;;;;;;6152002;23;20037;-85
2022/05/13 04:45:13;;;;;;;4.80;4.40;;;14.30;99.90;;;;;;6121694;23;20025;-85
2022/05/13 04:50:30;;;;;;;4.35;3.78;;;14.20;99.90;;;;;;6131243;23;20036;-85
2022/05/13 04:52:58;;;;;;;8.83;3.97;;;14.20;99.90;;;;;;6146397;23;20025;-84
2022/05/13 04:55:46;;;;;;;7.70;5.20;;;14.30;99.90;;;;;;6132011;23;20058;-86
2022/05/13 04:59:05;;;;;;;6.68;5.32;;;14.30;99.90;;;;;;6135902;23;20032;-86
2022/05/13 05:01:34;;;;;;;6.00;4.05;;;14.40;99.90;;;;;;6128122;23;20026;-82
2022/05/13 05:04:02;;;;;;;8.20;4.90;;;14.40;99.90;;;;;;6150207;23;20721;-83
2022/05/13 05:06:30;;;;;;;4.70;4.13;;;14.40;99.90;;;;;;6152949;23;20025;-84
2022/05/13 05:08:57;;;;;;;6.05;4.93;;;14.40;99.90;;;;;;6148987;23;20516;-85
2022/05/13 05:11:36;;;;;;;5.15;4.22;;;14.40;99.90;;;;;;6148806;23;20552;-85
2022/05/13 05:14:04;;;;;;;9.03;4.73;;;14.50;99.90;;;;;;6130353;23;20424;-84
2022/05/13 05:16:31;;;;;;;4.90;4.40;;;14.50;99.90;;;;;;6126256;23;20029;-84
2022/05/13 05:19:01;;;;;;;8.93;4.97;;;14.50;99.90;;;;;;6154557;23;20021;-85
2022/05/13 05:21:32;;;;;;;4.63;4.18;;;14.50;99.90;;;;;;6146371;23;20025;-86
2022/05/13 05:24:11;;;;;;;7.80;4.95;;;14.50;99.90;;;;;;6123385;23;20021;-87
2022/05/13 05:26:41;;;;;;;4.63;4.25;;;14.50;99.90;;;;;;6157807;23;20091;-84
2022/05/13 05:29:12;;;;;;;6.82;4.30;;;14.60;99.90;;;;;;6150960;23;20021;-82
2022/05/13 05:31:39;;;;;;;3.90;3.58;;;14.60;99.90;;;;;;6158014;23;20017;-83
2022/05/13 05:34:08;;;;;;;5.32;4.82;;;14.60;99.90;;;;;;6147719;23;20025;-83
2022/05/13 05:36:35;;;;;;;8.60;5.47;;;14.70;99.90;;;;;;6153307;23;20044;-83
2022/05/13 05:39:03;;;;;;;6.40;4.50;;;14.80;99.90;;;;;;6157850;23;20022;-84
2022/05/13 05:41:33;;;;;;;16.17;4.30;;;14.80;99.90;;;;;;6150080;23;20041;-86
2022/05/13 05:44:01;;;;;;;5.80;4.63;;;14.80;99.90;;;;;;6130085;23;20021;-85
2022/05/13 05:46:29;;;;;;;5.00;4.50;;;14.80;99.90;;;;;;6157817;23;20488;-86
2022/05/13 05:48:58;;;;;;;6.45;5.32;;;14.90;99.90;;;;;;6152107;23;20025;-87
2022/05/13 05:51:26;;;;;;;3.65;3.35;;;14.90;99.90;;;;;;6153005;23;20017;-85
2022/05/13 05:59:29;;;;;;;4.72;4.30;;;14.90;99.90;;;;;;6158184;23;20021;-84
2022/05/13 06:01:57;;;;;;;5.35;4.30;;;14.90;99.90;;;;;;6148228;23;20022;-85
2022/05/13 06:04:25;;;;;;;5.03;3.80;;;14.90;99.90;;;;;;6154807;23;20021;-84
2022/05/13 06:06:56;;;;;;;7.70;4.63;;;14.90;99.90;;;;;;6157398;23;20013;-83
2022/05/13 06:09:23;;;;;;;3.55;3.25;;;14.80;99.90;;;;;;6150453;23;20026;-86
2022/05/13 06:11:51;;;;;;;5.88;4.07;;;14.80;99.90;;;;;;6157220;23;20056;-85
2022/05/13 06:14:22;;;;;;;3.75;3.45;;;14.80;99.90;;;;;;6149301;23;20017;-85
2022/05/13 06:16:51;;;;;;;4.78;4.20;;;14.80;99.90;;;;;;6154676;23;20036;-86
2022/05/13 06:19:19;;;;;;;5.15;4.65;;;14.80;99.90;;;;;;6148735;23;20032;-85
2022/05/13 06:21:49;;;;;;;7.22;4.68;;;14.80;99.90;;;;;;6150091;23;20025;-85
2022/05/13 06:24:20;;;;;;;3.88;3.22;;;14.70;99.90;;;;;;6156987;23;20026;-86
2022/05/13 06:26:49;;;;;;;6.30;4.13;;;14.70;99.90;;;;;;6159656;23;20013;-83
2022/05/13 06:29:25;;;;;;;5.13;4.57;;;14.70;99.90;;;;;;6152363;23;20025;-86
2022/05/13 06:31:54;;;;;;;4.57;3.25;;;14.70;99.90;;;;;;6158557;23;20018;-86
2022/05/13 06:34:22;;;;;;;4.03;3.33;;;14.70;99.90;;;;;;6159921;23;20024;-85
2022/05/13 06:36:51;;;;;;;4.55;4.15;;;14.60;99.90;;;;;;6153776;23;20077;-85
2022/05/13 06:39:19;;;;;;;9.88;3.80;;;14.50;99.90;;;;;;6159866;23;20084;-85
2022/05/13 06:41:47;;;;;;;4.72;4.22;;;14.50;99.90;;;;;;6151077;23;20026;-84
2022/05/13 06:44:18;;;;;;;6.00;4.40;;;14.50;99.90;;;;;;6156990;23;20480;-84
2022/05/13 06:46:47;;;;;;;4.30;3.90;;;14.60;99.90;;;;;;6132379;23;20025;-83
2022/05/13 06:49:15;;;;;;;4.88;4.38;;;14.50;99.90;;;;;;6101643;23;20029;-83
2022/05/13 06:51:43;;;;;;;5.65;4.68;;;14.60;99.90;;;;;;6154627;23;20449;-77
2022/05/13 06:54:12;;;;;;;5.72;5.10;;;14.70;99.90;;;;;;6148752;23;20033;-78
2022/05/13 06:56:43;;;;;;;5.25;4.75;;;14.70;99.90;;;;;;6154496;23;20436;-78
2022/05/13 06:59:12;;;;;;;9.88;5.05;;;14.60;99.90;;;;;;6155246;23;20028;-80
2022/05/13 07:01:40;;;;;;;7.10;5.07;;;14.60;99.90;;;;;;6123483;23;20736;-80
2022/05/13 07:04:08;;;;;;;6.35;5.75;;;14.60;99.90;;;;;;6171216;23;20025;-78
2022/05/13 07:06:36;;;;;;;8.65;4.85;;;14.70;99.90;;;;;;6126332;23;20461;-80
2022/05/13 07:09:03;;;;;;;5.80;4.60;;;14.70;99.90;;;;;;6118534;23;20036;-79
2022/05/13 07:11:32;;;;;;;5.32;4.10;;;14.70;99.90;;;;;;6132360;23;20018;-79
2022/05/13 07:14:00;;;;;;;7.32;5.50;;;14.70;99.90;;;;;;6121877;23;20029;-79
2022/05/13 07:16:27;;;;;;;9.05;5.40;;;14.80;99.90;;;;;;6126623;23;20025;-80
2022/05/13 07:18:55;;;;;;;5.93;5.18;;;15.00;99.90;;;;;;6158015;23;20028;-81
2022/05/13 07:21:23;;;;;;;7.78;5.30;;;15.20;99.90;;;;;;6150760;23;20029;-84
2022/05/13 07:23:50;;;;;;;6.80;5.28;;;15.30;99.90;;;;;;6097700;23;20022;-85
2022/05/13 07:26:18;;;;;;;6.82;4.22;;;15.40;99.90;;;;;;6132016;23;20021;-85
2022/05/13 07:28:47;;;;;;;7.47;6.07;;;15.60;99.90;;;;;;6096935;23;20470;-80
2022/05/13 07:31:15;;;;;;;10.50;5.18;;;15.70;99.90;;;;;;6158604;23;20445;-83
2022/05/13 07:33:42;;;;;;;7.18;6.22;;;15.80;99.90;;;;;;6124031;23;20022;-81
2022/05/13 07:36:10;;;;;;;7.40;5.95;;;15.80;99.90;;;;;;6096372;23;20055;-81
2022/05/13 07:41:16;;;;;;;6.38;5.80;;;15.90;99.90;;;;;;6131368;23;20014;-81
2022/05/13 07:41:28;;;;;;;6.50;5.83;;;16.00;99.90;;;;;;6121446;23;20484;-77
2022/05/13 07:43:56;;;;;;;7.60;6.68;;;16.10;99.90;;;;;;6121978;23;20747;-77
2022/05/13 07:46:24;;;;;;;8.80;7.00;;;16.20;99.90;;;;;;6158503;23;20024;-78
2022/05/13 07:48:52;;;;;;;5.85;5.28;;;16.50;99.90;;;;;;6152625;23;20444;-81
2022/05/13 07:51:23;;;;;;;5.25;4.75;;;16.90;99.90;;;;;;6155908;23;20033;-82
2022/05/13 07:53:50;;;;;;;;;;;17.10;99.90;;;;;;6150613;23;20048;-82
2022/05/13 07:56:19;;;;;;;6.20;5.60;;;17.10;99.90;;;;;;6156358;23;19920;-83
2022/05/13 07:58:47;;;;;;;11.77;6.05;;;17.30;99.90;;;;;;6158605;23;20022;-84
2022/05/13 08:01:14;;;;;;;6.95;6.20;;;17.60;99.90;;;;;;6151401;23;20713;-83
2022/05/13 08:03:43;;;;;;;6.10;5.55;;;17.50;99.90;;;;;;6158881;23;20017;-81
2022/05/13 08:06:13;;;;;;;7.70;6.20;;;17.40;99.90;;;;;;6147313;23;20032;-83
2022/05/13 08:08:43;;;;;;;6.27;5.37;;;17.40;99.90;;;;;;6153951;23;20725;-82
2022/05/13 08:11:14;;;;;;;7.80;7.10;;;17.90;99.90;;;;;;6158613;23;20441;-83
2022/05/13 08:13:41;;;;;;;9.80;5.85;;;17.80;99.90;;;;;;6149923;23;20335;-82
2022/05/13 08:16:16;;;;;;;5.50;4.65;;;17.60;99.90;;;;;;6155747;23;20624;-82
2022/05/13 08:18:45;;;;;;;8.85;6.68;;;17.30;99.90;;;;;;6158006;23;20017;-81
2022/05/13 08:21:13;;;;;;;7.50;6.68;;;17.20;99.90;;;;;;6151228;23;20033;-82
2022/05/13 08:23:41;;;;;;;6.93;6.28;;;17.70;99.90;;;;;;6158201;23;20017;-83
2022/05/13 08:26:11;;;;;;;7.38;6.57;;;17.80;99.90;;;;;;6148128;23;20757;-81
2022/05/13 08:28:40;;;;;;;7.18;6.47;;;18.00;99.90;;;;;;6152968;23;20021;-82
2022/05/13 08:31:09;;;;;;;9.15;7.20;;;18.10;99.90;;;;;;6157833;23;20017;-80
2022/05/13 08:33:37;;;;;;;8.77;7.97;;;18.00;99.90;;;;;;6150036;23;20033;-82
2022/05/13 08:36:06;;;;;;;15.88;7.75;;;17.80;99.90;;;;;;6154973;23;20018;-80
2022/05/13 08:38:44;;;;;;;10.32;7.68;;;17.50;99.90;;;;;;6157736;23;20517;-81
2022/05/13 08:41:18;;;;;;;8.82;7.32;;;17.50;99.90;;;;;;6151840;23;20037;-81
2022/05/13 08:44:00;;;;;;;9.07;7.70;;;17.60;99.90;;;;;;6158164;23;20014;-81
2022/05/13 08:46:38;;;;;;;14.02;6.80;;;17.60;99.90;;;;;;6098530;23;20029;-82
2022/05/13 08:49:52;;;;;;;8.98;8.07;;;17.50;99.90;;;;;;6150170;23;20030;-80
2022/05/13 08:55:27;;;;;;;8.95;8.15;;;17.30;99.90;;;;;;6160136;23;20017;-81
2022/05/13 08:57:56;;;;;;;8.32;7.53;;;17.40;99.90;;;;;;6147427;23;20357;-80
2022/05/13 09:00:34;;;;;;;9.40;7.88;;;17.60;99.90;;;;;;6127341;23;20041;-81
2022/05/13 09:03:34;;;;;;;7.72;5.80;;;17.70;99.90;;;;;;6119212;23;20026;-80
2022/05/13 09:06:13;;;;;;;9.35;7.18;;;17.90;99.90;;;;;;6120425;23;20032;-80
2022/05/13 09:09:09;;;;;;;6.88;6.20;;;18.10;99.90;;;;;;6152755;23;20029;-80
2022/05/13 09:12:57;;;;;;;8.52;6.40;;;18.30;99.90;;;;;;6119055;23;20024;-80
2022/05/13 09:16:12;;;;;;;6.97;6.28;;;18.30;99.90;;;;;;6156068;23;20347;-80
2022/05/13 09:19:15;;;;;;;6.88;6.15;;;18.30;99.90;;;;;;6157771;23;20472;-79
2022/05/13 09:21:48;;;;;;;6.32;5.75;;;18.10;99.90;;;;;;6147855;23;20359;-80
2022/05/13 09:24:16;;;;;;;5.57;4.72;;;18.10;99.90;;;;;;6155297;23;20528;-80
2022/05/13 09:26:45;;;;;;;7.93;6.10;;;18.10;99.90;;;;;;6157618;23;20017;-80
2022/05/13 09:29:17;;;;;;;6.72;5.90;;;18.00;99.90;;;;;;6150911;23;20044;-82
2022/05/13 09:32:00;;;;;;;6.05;5.20;;;17.90;99.90;;;;;;6157602;23;20018;-83
2022/05/13 09:35:01;;;;;;;8.05;6.30;;;17.80;99.90;;;;;;6130101;23;20029;-84
2022/05/13 09:37:37;;;;;;;7.10;6.07;;;17.70;99.90;;;;;;6119668;23;20029;-84
2022/05/13 09:40:17;;;;;;;7.10;6.50;;;17.60;99.90;;;;;;6126654;23;20404;-86
2022/05/13 09:42:50;;;;;;;10.38;7.75;;;17.50;99.90;;;;;;6131227;23;20017;-86
2022/05/13 09:45:33;;;;;;;5.47;5.05;;;17.40;99.90;;;;;;6151692;23;20064;-87
2022/05/13 09:48:18;;;;;;;4.82;4.18;;;17.10;99.90;;;;;;6111734;23;20127;-86
2022/05/13 09:50:50;;;;;;;6.20;4.90;;;16.90;99.90;;;;;;6160091;23;20014;-86
2022/05/13 09:53:21;;;;;;;10.73;5.05;;;16.80;99.90;;;;;;6123305;23;20030;-85
2022/05/13 09:55:54;;;;;;;8.65;5.28;;;16.60;99.90;;;;;;6129863;23;20429;-84
2022/05/13 09:58:28;;;;;;;7.13;6.53;;;16.40;99.90;;;;;;6129725;23;20018;-85
2022/05/13 10:01:09;;;;;;;5.22;4.65;;;16.20;99.90;;;;;;6125095;23;20029;-85
2022/05/13 10:03:39;;;;;;;6.72;4.38;;;16.00;99.90;;;;;;6128801;23;20018;-85
2022/05/13 10:06:19;;;;;;;9.80;5.60;;;15.80;99.90;;;;;;6119563;23;20029;-85
2022/05/13 10:13:57;;;;;;;5.55;5.15;;;15.60;99.90;;;;;;6121678;23;20040;-88
2022/05/13 10:14:43;;;;;;;6.22;4.82;;;15.30;99.90;;;;;;6105617;23;20030;-85
2022/05/13 10:17:51;;;;;;;10.15;4.47;;;15.20;99.90;;;;;;6092352;23;20029;-85
2022/05/13 10:20:35;;;;;;;4.13;2.88;;;15.00;99.90;;;;;;6091615;23;20618;-81
2022/05/13 10:23:24;;;;;;;4.15;3.85;;;14.60;99.90;;;;;;6104267;23;20014;-82
2022/05/13 10:26:09;;;;;;;4.55;3.00;;;14.50;99.90;;;;;;6121813;23;20026;-82
2022/05/13 10:28:49;;;;;;;13.80;3.50;;;14.50;99.90;;;;;;6125756;23;20033;-82
2022/05/13 10:31:21;;;;;;;3.78;3.45;;;14.50;99.90;;;;;;6069100;23;20030;-84
2022/05/13 10:33:49;;;;;;;5.32;4.45;;;14.50;99.90;;;;;;6121118;23;20040;-83
2022/05/13 10:36:40;;;;;;;2.45;2.25;;;14.60;99.90;;;;;;6127692;23;20358;-84
2022/05/13 10:39:13;;;;;;;;;;;14.50;99.90;;;;;;6096919;23;20433;-87
2022/05/13 10:41:50;;;;;;;4.18;3.78;;;14.40;99.90;;;;;;6098516;23;20329;-89
2022/05/13 10:44:31;;;;;;;5.45;4.80;;;14.50;99.90;;;;;;6128880;23;20041;-89
2022/05/13 10:47:06;;;;;;;7.25;3.55;;;14.40;99.90;;;;;;6073264;23;20339;-87
2022/05/13 10:49:42;;;;;;;3.40;3.10;;;14.30;99.90;;;;;;6093531;23;20049;-84
2022/05/13 10:52:13;;;;;;;3.38;3.03;;;14.20;99.90;;;;;;6139687;23;20032;-82
2022/05/13 10:54:53;;;;;;;3.88;3.08;;;14.10;99.90;;;;;;6159598;23;20040;-84
2022/05/13 10:57:41;;;;;;;8.90;3.40;;;14.00;99.90;;;;;;6153012;23;20353;-85
2022/05/13 11:00:15;;;;;;;3.67;3.17;;;14.00;99.90;;;;;;6158186;23;20033;-84
2022/05/13 11:02:49;;;;;;;4.90;3.20;;;14.10;99.90;;;;;;6159635;23;20013;-86
2022/05/13 11:05:31;;;;;;;4.97;4.30;;;14.10;99.90;;;;;;6151712;23;20592;-85
2022/05/13 11:08:16;;;;;;;;;;;14.10;99.90;;;;;;6157762;23;20022;-89
2022/05/13 11:11:13;;;;;;;3.88;3.15;;;14.10;99.90;;;;;;6158052;23;19927;-85
2022/05/13 11:13:52;;;;;;;3.35;3.05;;;14.20;99.90;;;;;;6112774;23;20030;-87
2022/05/13 11:16:37;;;;;;;4.90;3.83;;;14.20;99.90;;;;;;6156826;23;20029;-87
2022/05/13 11:19:37;;;;;;;4.10;2.45;;;14.10;99.90;;;;;;6159770;23;20017;-86
2022/05/13 11:22:36;;;;;;;5.45;3.60;;;14.10;99.90;;;;;;6121130;23;20025;-83
2022/05/13 11:28:23;;;;;;;2.33;2.20;;;13.90;99.90;;;;;;6146590;23;20435;-85
2022/05/13 11:31:40;;;;;;;2.83;2.63;;;13.90;99.90;;;;;;6079841;23;20028;-86
2022/05/13 11:34:29;;;;;;;2.63;2.42;;;13.90;99.90;;;;;;6150519;23;20028;-86
2022/05/13 11:37:10;;;;;;;6.68;3.67;;;14.00;99.90;;;;;;6101980;23;20025;-88
2022/05/13 11:40:23;;;;;;;7.32;3.20;;;13.90;99.90;;;;;;6133481;23;20508;-88
2022/05/13 11:43:19;;;;;;;4.43;3.25;;;14.00;99.90;;;;;;6012019;23;20032;-84
2022/05/13 11:46:02;;;;;;;4.32;3.63;;;14.00;99.90;;;;;;6077994;23;20036;-86
2022/05/13 11:48:35;;;;;;;2.80;2.60;;;14.00;99.90;;;;;;6157472;23;20017;-87
2022/05/13 11:51:20;;;;;;;2.65;2.20;;;14.00;99.90;;;;;;6111632;23;20025;-86
2022/05/13 11:54:10;;;;;;;2.90;2.65;;;14.10;99.90;;;;;;6078691;23;20030;-86
2022/05/13 11:56:38;;;;;;;4.18;2.75;;;14.10;99.90;;;;;;6132972;23;20037;-87
2022/05/13 11:59:31;;;;;;;2.55;2.28;;;14.20;99.90;;;;;;6134748;23;20014;-84
2022/05/13 12:02:11;;;;;;;4.32;3.53;;;14.20;99.90;;;;;;6124691;23;20029;-86
2022/05/13 12:05:16;;;;;;;3.73;3.33;;;14.20;99.90;;;;;;6108068;23;20025;-89
2022/05/13 12:07:53;;;;;;;3.40;3.10;;;14.10;99.90;;;;;;6159982;23;20035;-84
2022/05/13 12:10:33;;;;;;;9.45;4.15;;;14.10;99.90;;;;;;6125832;23;20022;-86
2022/05/13 12:13:40;;;;;;;3.58;2.85;;;14.20;99.90;;;;;;6102534;23;20453;-85
2022/05/13 12:16:13;;;;;;;3.17;2.95;;;14.20;99.90;;;;;;6100291;23;20585;-88
2022/05/13 12:19:12;;;;;;;3.95;2.17;;;14.30;99.90;;;;;;6098304;23;20449;-89
2022/05/13 12:22:28;;;;;;;2.92;2.72;;;14.30;99.90;;;;;;6132093;23;20741;-90
2022/05/13 12:25:08;;;;;;;3.33;3.03;;;14.40;99.90;;;;;;6098671;23;20025;-91
2022/05/13 12:28:03;;;;;;;3.47;3.03;;;14.50;99.90;;;;;;6158667;23;20017;-88
2022/05/13 12:30:49;;;;;;;2.85;2.65;;;14.40;99.90;;;;;;6131609;23;20357;-88
2022/05/13 12:33:20;;;;;;;3.45;3.15;;;14.40;99.90;;;;;;6125880;23;20037;-86
2022/05/13 12:39:05;;;;;;;4.88;3.67;;;14.70;99.90;;;;;;6132074;23;20018;-83
2022/05/13 12:46:07;;;;;;;3.60;2.28;;;14.90;99.90;;;;;;6118218;23;20026;-86
2022/05/13 12:48:53;;;;;;;3.78;2.97;;;15.00;99.90;;;;;;6099194;23;20050;-85
2022/05/13 12:51:46;;;;;;;3.95;3.00;;;15.10;99.90;;;;;;6125624;23;20014;-85
2022/05/13 12:54:24;;;;;;;3.28;2.97;;;15.40;99.90;;;;;;6092321;23;20042;-85
2022/05/13 12:57:06;;;;;;;23.50;3.65;;;15.60;99.90;;;;;;6092408;23;20362;-85
2022/05/13 12:59:53;;;;;;;;;;;15.60;99.90;;;;;;6102138;23;20525;-84
2022/05/13 13:02:29;;;;;;;4.68;3.53;;;15.50;99.90;;;;;;6092538;23;19921;-86
2022/05/13 13:05:12;;;;;;;3.58;3.28;;;15.70;99.90;;;;;;6068135;23;20399;-85
2022/05/13 13:07:42;;;;;;;4.53;4.18;;;15.70;99.90;;;;;;6067510;23;20025;-85
2022/05/13 13:10:15;;;;;;;4.07;2.80;;;15.80;99.90;;;;;;6118431;23;20334;-85
2022/05/13 13:12:50;;;;;;;3.90;3.60;;;15.90;99.90;;;;;;6124439;23;20026;-83
2022/05/13 13:15:35;;;;;;;4.10;3.65;;;15.90;99.90;;;;;;6127014;23;20017;-84
2022/05/13 13:18:09;;;;;;;5.03;4.40;;;16.00;99.90;;;;;;6091943;23;20052;-83
2022/05/13 13:21:04;;;;;;;6.15;3.50;;;16.00;99.90;;;;;;6091732;23;20034;-85
2022/05/13 13:23:38;;;;;;;5.47;4.60;;;16.20;99.90;;;;;;6068662;23;20329;-83
2022/05/13 13:26:08;;;;;;;4.60;4.20;;;16.30;99.90;;;;;;6092449;23;20033;-82
2022/05/13 13:28:40;;;;;;;6.35;4.03;;;16.20;99.90;;;;;;6124893;23;20030;-83
2022/05/13 13:31:12;;;;;;;;;;;15.90;99.90;;;;;;6127251;23;20021;-82
2022/05/13 13:33:49;;;;;;;6.05;5.32;;;16.10;99.90;;;;;;6121061;23;19921;-79
2022/05/13 13:36:32;;;;;;;5.30;4.90;;;16.50;99.90;;;;;;6125770;23;20025;-80
2022/05/13 13:39:22;;;;;;;6.03;4.70;;;16.70;99.90;;;;;;6130308;23;20018;-80
2022/05/13 13:41:59;;;;;;;4.82;4.10;;;16.40;99.90;;;;;;6121437;23;20026;-81
2022/05/13 13:44:27;;;;;;;3.95;3.58;;;16.40;99.90;;;;;;6106348;23;20018;-77
2022/05/13 13:46:55;;;;;;;5.93;4.85;;;16.30;99.90;;;;;;6117201;23;20017;-79
2022/05/13 13:49:30;;;;;;;4.32;3.97;;;16.30;99.90;;;;;;6120342;23;20037;-80
2022/05/13 13:52:04;;;;;;;6.00;4.35;;;16.30;99.90;;;;;;6125356;23;20013;-79
2022/05/13 13:54:36;;;;;;;5.45;4.75;;;16.30;99.90;;;;;;6130274;23;20021;-80
2022/05/13 13:57:33;;;;;;;4.65;3.10;;;16.30;99.90;;;;;;6120305;23;20335;-83
2022/05/13 14:00:23;;;;;;;6.95;4.93;;;16.70;99.90;;;;;;6118784;23;20327;-86
2022/05/13 14:03:00;;;;;;;5.10;4.68;;;17.10;99.90;;;;;;6130415;23;20018;-81
2022/05/13 14:05:31;;;;;;;3.88;3.47;;;17.20;99.90;;;;;;6121354;23;20437;-87
2022/05/13 14:08:04;;;;;;;5.95;4.63;;;17.10;99.90;;;;;;6069200;23;20025;-80
2022/05/13 14:10:54;;;;;;;3.70;3.40;;;17.30;99.90;;;;;;6128185;23;20013;-82